createdAt,value
2018-10-06T00:00:43.261Z,19.05
2018-10-06T00:04:59.911Z,14.53
2018-10-06T00:06:29.936Z,14.87
2018-10-06T00:07:36.750Z,12.88
2018-10-06T00:08:40.897Z,19.87
2018-10-06T00:09:45.036Z,14.53
2018-10-06T00:10:49.342Z,17.65
2018-10-06T00:11:53.551Z,16.62
2018-10-06T00:12:57.716Z,14.33
2018-10-06T00:14:04.020Z,16.10
2018-10-06T00:15:08.424Z,16.00
2018-10-06T00:16:12.559Z,16.40
2018-10-06T00:17:19.419Z,11.75
2018-10-06T00:18:42.720Z,16.80
2018-10-06T00:20:15.738Z,15.18
2018-10-06T00:21:19.825Z,16.20
2018-10-06T00:22:24.414Z,16.82
2018-10-06T00:24:41.323Z,15.28
2018-10-06T00:25:45.679Z,13.65
2018-10-06T00:26:49.816Z,15.28
2018-10-06T00:27:53.995Z,18.67
2018-10-06T00:28:58.076Z,15.38
2018-10-06T00:30:02.186Z,18.45
2018-10-06T00:31:06.603Z,14.98
2018-10-06T00:32:10.706Z,14.25
2018-10-06T00:33:15.199Z,18.65
2018-10-06T00:34:19.307Z,17.75
2018-10-06T00:35:23.350Z,16.77
2018-10-06T00:36:27.439Z,18.73
2018-10-06T00:37:31.554Z,19.70
2018-10-06T00:38:35.801Z,15.88
2018-10-06T00:39:40.005Z,14.93
2018-10-06T00:40:44.087Z,16.23
2018-10-06T00:41:48.199Z,19.98
2018-10-06T00:42:52.296Z,20.60
2018-10-06T00:43:56.510Z,18.60
2018-10-06T00:45:00.711Z,15.68
2018-10-06T00:46:04.867Z,12.10
2018-10-06T00:47:09.031Z,17.25
2018-10-06T00:48:13.254Z,19.00
2018-10-06T00:49:17.428Z,18.70
2018-10-06T00:50:21.528Z,20.35
2018-10-06T00:51:33.658Z,19.75
2018-10-06T00:52:45.548Z,18.12
2018-10-06T00:53:56.775Z,22.90
2018-10-06T00:55:10.152Z,18.05
2018-10-06T00:56:16.321Z,20.27
2018-10-06T00:57:20.396Z,20.43
2018-10-06T01:02:07.918Z,16.20
2018-10-06T01:03:11.942Z,18.82
2018-10-06T01:04:18.499Z,17.12
2018-10-06T01:05:22.559Z,18.37
2018-10-06T01:06:27.635Z,20.45
2018-10-06T01:07:32.310Z,19.02
2018-10-06T01:08:36.412Z,19.27
2018-10-06T01:09:40.559Z,18.48
2018-10-06T01:10:44.668Z,20.95
2018-10-06T01:11:48.778Z,18.57
2018-10-06T01:12:58.455Z,17.32
2018-10-06T01:14:02.514Z,23.45
2018-10-06T01:15:08.090Z,19.65
2018-10-06T01:16:12.201Z,17.75
2018-10-06T01:17:16.321Z,21.95
2018-10-06T01:18:20.794Z,22.00
2018-10-06T01:19:24.944Z,17.32
2018-10-06T01:20:29.011Z,18.07
2018-10-06T01:21:33.363Z,16.85
2018-10-06T01:22:37.992Z,20.92
2018-10-06T01:23:47.166Z,22.48
2018-10-06T01:25:04.390Z,17.20
2018-10-06T01:31:46.302Z,23.20
2018-10-06T01:32:52.835Z,19.45
2018-10-06T01:34:02.648Z,18.17
2018-10-06T01:35:08.226Z,20.82
2018-10-06T01:36:12.335Z,21.37
2018-10-06T01:37:16.530Z,19.23
2018-10-06T01:38:20.629Z,18.25
2018-10-06T01:39:28.346Z,17.62
2018-10-06T01:40:35.220Z,20.27
2018-10-06T01:41:39.375Z,20.92
2018-10-06T01:42:43.506Z,20.72
2018-10-06T01:43:50.595Z,21.45
2018-10-06T01:44:55.179Z,17.57
2018-10-06T01:45:59.307Z,25.27
2018-10-06T01:47:03.421Z,17.05
2018-10-06T01:48:13.992Z,18.42
2018-10-06T01:49:18.030Z,16.32
2018-10-06T01:50:29.451Z,17.25
2018-10-06T01:51:33.542Z,23.12
2018-10-06T01:52:37.700Z,17.62
2018-10-06T01:53:41.858Z,20.68
2018-10-06T01:54:45.955Z,15.78
2018-10-06T01:55:50.057Z,17.30
2018-10-06T01:56:54.195Z,22.85
2018-10-06T01:57:58.418Z,18.37
2018-10-06T01:59:04.252Z,18.65
2018-10-06T02:00:08.365Z,21.12
2018-10-06T02:01:14.702Z,16.10
2018-10-06T02:02:18.985Z,22.25
2018-10-06T02:03:23.066Z,20.65
2018-10-06T02:04:31.614Z,20.27
2018-10-06T02:05:35.688Z,16.17
2018-10-06T02:06:39.823Z,18.80
2018-10-06T02:07:49.083Z,21.93
2018-10-06T02:08:53.156Z,20.10
2018-10-06T02:09:58.956Z,18.82
2018-10-06T02:11:04.101Z,17.80
2018-10-06T02:12:08.275Z,20.80
2018-10-06T02:13:12.416Z,22.10
2018-10-06T02:14:21.516Z,21.00
2018-10-06T02:15:26.548Z,19.98
2018-10-06T02:16:49.956Z,19.80
2018-10-06T02:17:58.490Z,23.15
2018-10-06T02:19:02.531Z,20.32
2018-10-06T02:20:08.232Z,22.25
2018-10-06T02:21:17.416Z,18.75
2018-10-06T02:22:21.507Z,20.70
2018-10-06T02:23:25.641Z,20.27
2018-10-06T02:24:29.732Z,24.02
2018-10-06T02:25:33.837Z,20.37
2018-10-06T02:26:37.991Z,19.90
2018-10-06T02:27:42.075Z,20.97
2018-10-06T02:28:46.206Z,19.50
2018-10-06T02:29:50.403Z,18.32
2018-10-06T02:30:54.894Z,22.87
2018-10-06T02:31:59.188Z,20.05
2018-10-06T02:33:03.478Z,21.45
2018-10-06T02:34:07.662Z,20.97
2018-10-06T02:35:11.799Z,20.05
2018-10-06T02:36:16.460Z,17.55
2018-10-06T02:37:20.692Z,19.75
2018-10-06T02:38:24.814Z,20.55
2018-10-06T02:39:28.966Z,21.23
2018-10-06T02:40:33.127Z,21.75
2018-10-06T02:41:37.203Z,18.17
2018-10-06T02:42:53.005Z,22.25
2018-10-06T02:43:57.043Z,18.45
2018-10-06T02:45:14.778Z,22.67
2018-10-06T02:46:18.903Z,21.37
2018-10-06T02:47:23.050Z,18.32
2018-10-06T02:48:27.368Z,24.15
2018-10-06T02:49:31.420Z,19.50
2018-10-06T02:50:35.479Z,22.62
2018-10-06T02:51:52.164Z,22.27
2018-10-06T02:52:56.226Z,25.48
2018-10-06T02:54:05.863Z,21.57
2018-10-06T02:55:18.787Z,19.15
2018-10-06T02:56:22.876Z,20.00
2018-10-06T02:57:28.202Z,23.02
2018-10-06T02:58:38.513Z,22.67
2018-10-06T02:59:42.680Z,23.87
2018-10-06T03:01:10.274Z,19.85
2018-10-06T03:02:14.371Z,22.85
2018-10-06T03:03:18.516Z,23.90
2018-10-06T03:04:22.609Z,25.43
2018-10-06T03:05:26.873Z,22.82
2018-10-06T03:06:31.054Z,24.50
2018-10-06T03:07:35.120Z,19.73
2018-10-06T03:08:41.297Z,26.97
2018-10-06T03:09:45.384Z,18.80
2018-10-06T03:10:49.490Z,20.27
2018-10-06T03:11:53.647Z,21.87
2018-10-06T03:12:57.798Z,19.87
2018-10-06T03:14:01.918Z,25.17
2018-10-06T03:15:06.704Z,25.48
2018-10-06T03:16:10.809Z,24.50
2018-10-06T03:17:14.922Z,22.67
2018-10-06T03:18:25.282Z,24.52
2018-10-06T03:19:43.377Z,18.75
2018-10-06T03:20:54.979Z,24.50
2018-10-06T03:21:59.168Z,28.17
2018-10-06T03:23:08.630Z,24.98
2018-10-06T03:24:12.758Z,31.23
2018-10-06T03:25:16.978Z,29.12
2018-10-06T03:26:21.380Z,28.67
2018-10-06T03:27:25.524Z,29.32
2018-10-06T03:28:29.700Z,25.85
2018-10-06T03:29:43.168Z,29.32
2018-10-06T03:30:47.305Z,25.62
2018-10-06T03:31:51.376Z,31.12
2018-10-06T03:32:55.633Z,25.08
2018-10-06T03:33:59.772Z,25.90
2018-10-06T03:35:03.917Z,26.12
2018-10-06T03:36:11.089Z,28.80
2018-10-06T03:37:15.692Z,26.95
2018-10-06T03:44:18.107Z,24.90
2018-10-06T03:45:22.171Z,30.77
2018-10-06T03:46:31.364Z,27.40
2018-10-06T03:48:45.995Z,29.02
2018-10-06T03:49:50.197Z,30.72
2018-10-06T03:50:54.353Z,27.95
2018-10-06T03:51:58.474Z,32.40
2018-10-06T03:53:02.532Z,27.07
2018-10-06T03:54:06.847Z,30.90
2018-10-06T03:55:11.564Z,32.50
2018-10-06T03:56:15.640Z,31.62
2018-10-06T03:57:19.699Z,35.35
2018-10-06T03:58:23.808Z,29.75
2018-10-06T03:59:27.919Z,25.25
2018-10-06T04:00:31.986Z,35.33
2018-10-06T04:01:36.177Z,33.00
2018-10-06T04:02:40.222Z,33.90
2018-10-06T04:03:56.792Z,29.77
2018-10-06T04:05:00.818Z,36.48
2018-10-06T04:06:05.031Z,33.63
2018-10-06T04:07:12.506Z,36.20
2018-10-06T04:08:16.551Z,33.60
2018-10-06T04:09:20.562Z,29.23
2018-10-06T04:10:26.768Z,36.85
2018-10-06T04:11:31.964Z,33.42
2018-10-06T04:12:36.174Z,29.00
2018-10-06T04:13:40.216Z,33.63
2018-10-06T04:14:46.384Z,34.65
2018-10-06T04:15:50.412Z,33.98
2018-10-06T04:17:07.211Z,36.00
2018-10-06T04:18:22.027Z,39.67
2018-10-06T04:19:42.499Z,32.23
2018-10-06T04:20:55.159Z,34.38
2018-10-06T04:25:10.000Z,43.13
2018-10-06T04:26:24.999Z,33.53
2018-10-06T04:27:37.807Z,35.75
2018-10-06T04:28:41.889Z,33.45
2018-10-06T04:29:46.071Z,37.50
2018-10-06T04:31:00.738Z,33.98
2018-10-06T04:32:27.645Z,39.65
2018-10-06T04:33:34.335Z,35.68
2018-10-06T04:34:40.269Z,35.92
2018-10-06T04:35:44.414Z,33.50
2018-10-06T04:36:48.583Z,41.60
2018-10-06T04:38:03.246Z,34.85
2018-10-06T04:39:19.115Z,33.05
2018-10-06T04:40:23.173Z,40.80
2018-10-06T04:41:36.143Z,40.45
2018-10-06T04:42:44.592Z,37.73
2018-10-06T04:43:48.724Z,35.65
2018-10-06T04:44:57.982Z,36.65
2018-10-06T04:46:02.111Z,38.45
2018-10-06T04:47:06.504Z,38.60
2018-10-06T04:48:12.308Z,44.25
2018-10-06T04:49:17.691Z,44.67
2018-10-06T04:50:32.489Z,44.18
2018-10-06T04:51:42.555Z,41.15
2018-10-06T04:52:51.345Z,39.55
2018-10-06T04:53:55.553Z,38.65
2018-10-06T04:54:59.768Z,35.10
2018-10-06T04:56:15.002Z,38.85
2018-10-06T05:00:59.240Z,38.00
2018-10-06T05:02:08.941Z,38.38
2018-10-06T05:03:14.363Z,37.00
2018-10-06T05:04:18.433Z,33.65
2018-10-06T05:05:22.682Z,38.08
2018-10-06T05:06:27.777Z,34.88
2018-10-06T05:07:45.479Z,38.40
2018-10-06T05:08:51.724Z,36.08
2018-10-06T05:09:57.926Z,40.85
2018-10-06T05:11:02.086Z,37.08
2018-10-06T05:12:06.304Z,39.65
2018-10-06T05:13:10.523Z,35.25
2018-10-06T05:14:14.635Z,43.75
2018-10-06T05:15:21.406Z,41.65
2018-10-06T05:16:25.543Z,42.10
2018-10-06T05:17:29.713Z,40.30
2018-10-06T05:18:49.102Z,43.42
2018-10-06T05:19:53.167Z,37.25
2018-10-06T05:21:02.461Z,36.58
2018-10-06T05:22:06.707Z,34.38
2018-10-06T05:23:12.909Z,41.98
2018-10-06T05:24:17.121Z,39.80
2018-10-06T05:25:23.459Z,36.90
2018-10-06T05:26:27.619Z,35.73
2018-10-06T05:27:39.900Z,39.13
2018-10-06T05:28:44.091Z,37.10
2018-10-06T05:29:48.176Z,36.55
2018-10-06T05:30:59.895Z,33.88
2018-10-06T05:32:04.049Z,35.00
2018-10-06T05:33:08.275Z,41.37
2018-10-06T05:34:12.631Z,37.05
2018-10-06T05:35:17.557Z,36.23
2018-10-06T05:36:22.591Z,37.78
2018-10-06T05:37:27.887Z,36.48
2018-10-06T05:38:38.029Z,34.00
2018-10-06T05:39:42.227Z,37.93
2018-10-06T05:40:46.417Z,36.45
2018-10-06T05:41:53.185Z,39.53
2018-10-06T05:42:57.399Z,33.18
2018-10-06T05:44:01.637Z,36.95
2018-10-06T05:45:08.440Z,35.23
2018-10-06T05:46:13.558Z,34.55
2018-10-06T05:47:17.622Z,31.62
2018-10-06T05:48:21.787Z,33.90
2018-10-06T05:49:25.987Z,33.90
2018-10-06T05:50:40.160Z,34.55
2018-10-06T05:51:44.368Z,34.35
2018-10-06T05:52:48.589Z,39.50
2018-10-06T05:53:52.750Z,31.93
2018-10-06T05:54:58.983Z,32.05
2018-10-06T05:56:04.018Z,38.05
2018-10-06T05:57:10.295Z,36.75
2018-10-06T05:58:14.488Z,34.98
2018-10-06T05:59:19.052Z,32.30
2018-10-06T06:00:26.333Z,32.25
2018-10-06T06:01:30.539Z,31.48
2018-10-06T06:02:35.544Z,35.20
2018-10-06T06:03:39.668Z,33.38
2018-10-06T06:04:51.979Z,41.10
2018-10-06T06:05:56.210Z,34.15
2018-10-06T06:07:32.238Z,34.88
2018-10-06T06:08:47.131Z,30.12
2018-10-06T06:10:00.011Z,37.10
2018-10-06T06:11:04.491Z,35.45
2018-10-06T06:12:19.730Z,32.17
2018-10-06T06:13:25.244Z,33.33
2018-10-06T06:14:33.496Z,35.45
2018-10-06T06:15:53.120Z,32.85
2018-10-06T06:16:59.292Z,36.00
2018-10-06T06:18:03.457Z,34.75
2018-10-06T06:19:07.679Z,32.33
2018-10-06T06:20:11.841Z,32.80
2018-10-06T06:21:16.243Z,34.40
2018-10-06T06:22:21.417Z,35.45
2018-10-06T06:23:25.730Z,33.38
2018-10-06T06:24:30.882Z,29.20
2018-10-06T06:25:42.046Z,32.20
2018-10-06T06:26:46.216Z,38.28
2018-10-06T06:27:58.260Z,31.40
2018-10-06T06:29:02.409Z,38.53
2018-10-06T06:30:09.173Z,34.13
2018-10-06T06:31:19.209Z,31.27
2018-10-06T06:32:23.384Z,37.65
2018-10-06T06:33:27.497Z,35.50
2018-10-06T06:34:36.150Z,36.77
2018-10-06T06:35:40.444Z,37.03
2018-10-06T06:36:53.892Z,32.60
2018-10-06T06:38:05.283Z,28.25
2018-10-06T06:39:10.048Z,35.03
2018-10-06T06:41:50.692Z,33.90
2018-10-06T06:42:54.913Z,32.45
2018-10-06T06:43:59.077Z,37.98
2018-10-06T06:45:03.236Z,34.53
2018-10-06T06:46:16.528Z,32.60
2018-10-06T06:47:38.879Z,32.75
2018-10-06T06:48:46.321Z,30.95
2018-10-06T06:49:50.536Z,35.68
2018-10-06T06:50:54.796Z,33.05
2018-10-06T06:51:58.983Z,28.42
2018-10-06T06:53:03.280Z,33.18
2018-10-06T06:54:07.991Z,33.45
2018-10-06T06:55:12.589Z,33.25
2018-10-06T06:56:16.874Z,31.82
2018-10-06T06:57:21.121Z,30.45
2018-10-06T06:58:31.068Z,32.53
2018-10-06T06:59:39.149Z,31.23
2018-10-06T07:00:43.411Z,33.92
2018-10-06T07:01:47.706Z,31.27
2018-10-06T07:02:52.205Z,31.15
2018-10-06T07:03:57.288Z,37.90
2018-10-06T07:05:26.191Z,29.72
2018-10-06T07:06:31.080Z,31.52
2018-10-06T07:07:35.291Z,29.67
2018-10-06T07:08:39.530Z,32.15
2018-10-06T07:09:49.871Z,34.15
2018-10-06T07:10:54.167Z,35.80
2018-10-06T07:12:01.288Z,32.83
2018-10-06T07:13:05.469Z,33.45
2018-10-06T07:14:10.228Z,34.58
2018-10-06T07:15:14.547Z,33.63
2018-10-06T07:16:18.796Z,29.23
2018-10-06T07:17:22.983Z,33.50
2018-10-06T07:18:27.307Z,28.17
2018-10-06T07:19:31.619Z,28.42
2018-10-06T07:20:35.944Z,26.80
2018-10-06T07:21:40.300Z,27.60
2018-10-06T07:22:44.716Z,33.92
2018-10-06T07:23:48.905Z,28.42
2018-10-06T07:26:22.243Z,29.75
2018-10-06T07:27:27.348Z,27.98
2018-10-06T07:28:31.674Z,30.43
2018-10-06T07:29:36.871Z,30.27
2018-10-06T07:30:41.121Z,26.35
2018-10-06T07:31:45.516Z,25.35
2018-10-06T07:32:49.745Z,24.07
2018-10-06T07:33:56.723Z,23.77
2018-10-06T07:35:02.047Z,31.07
2018-10-06T07:36:28.308Z,24.87
2018-10-06T07:37:33.024Z,28.05
2018-10-06T07:38:41.954Z,23.92
2018-10-06T07:39:55.704Z,24.60
2018-10-06T07:41:03.104Z,26.17
2018-10-06T07:45:21.577Z,30.85
2018-10-06T07:46:26.178Z,25.70
2018-10-06T07:47:35.683Z,24.45
2018-10-06T07:48:39.923Z,29.25
2018-10-06T07:49:44.928Z,24.12
2018-10-06T07:50:49.085Z,26.50
2018-10-06T07:51:53.489Z,23.77
2018-10-06T07:53:03.004Z,25.90
2018-10-06T07:54:17.776Z,22.53
2018-10-06T07:55:34.927Z,22.23
2018-10-06T07:56:39.132Z,21.77
2018-10-06T07:57:43.565Z,20.25
2018-10-06T07:58:54.011Z,23.18
2018-10-06T08:00:04.302Z,26.37
2018-10-06T08:01:08.753Z,22.22
2018-10-06T08:02:14.306Z,18.77
2018-10-06T08:03:18.436Z,22.20
2018-10-06T08:04:33.788Z,24.60
2018-10-06T08:05:40.518Z,19.30
2018-10-06T08:06:48.752Z,23.18
2018-10-06T08:07:57.200Z,24.50
2018-10-06T08:09:01.288Z,24.05
2018-10-06T08:10:14.635Z,18.42
2018-10-06T08:11:18.750Z,20.30
2018-10-06T08:12:25.146Z,21.20
2018-10-06T08:13:34.673Z,19.02
2018-10-06T08:14:53.073Z,18.05
2018-10-06T08:15:57.213Z,21.35
2018-10-06T08:17:01.412Z,18.65
2018-10-06T08:18:08.219Z,19.42
2018-10-06T08:19:19.124Z,20.68
2018-10-06T08:22:51.606Z,21.87
2018-10-06T08:23:55.693Z,16.63
2018-10-06T08:25:14.266Z,18.07
2018-10-06T08:26:24.515Z,17.40
2018-10-06T08:27:29.093Z,18.42
2018-10-06T08:28:33.297Z,21.80
2018-10-06T08:29:37.362Z,18.20
2018-10-06T08:30:41.486Z,19.48
2018-10-06T08:31:50.901Z,19.90
2018-10-06T08:32:55.508Z,21.75
2018-10-06T08:33:59.552Z,23.20
2018-10-06T08:35:20.967Z,17.57
2018-10-06T08:36:25.080Z,19.90
2018-10-06T08:37:29.636Z,16.87
2018-10-06T08:39:44.789Z,17.20
2018-10-06T08:40:53.698Z,21.77
2018-10-06T08:41:59.889Z,19.25
2018-10-06T08:43:04.012Z,19.57
2018-10-06T08:44:17.220Z,18.30
2018-10-06T08:46:42.755Z,20.37
2018-10-06T08:47:47.504Z,19.95
2018-10-06T08:48:55.244Z,21.35
2018-10-06T08:50:03.241Z,17.67
2018-10-06T08:51:13.648Z,21.60
2018-10-06T08:52:17.807Z,21.40
2018-10-06T08:53:29.470Z,19.15
2018-10-06T08:54:34.535Z,18.70
2018-10-06T08:55:39.813Z,19.25
2018-10-06T08:56:44.122Z,17.45
2018-10-06T08:57:48.391Z,20.27
2018-10-06T08:58:53.220Z,18.20
2018-10-06T09:00:12.226Z,20.55
2018-10-06T09:01:16.350Z,17.60
2018-10-06T09:02:35.086Z,17.73
2018-10-06T09:03:40.094Z,19.20
2018-10-06T09:04:44.783Z,16.67
2018-10-06T09:05:49.003Z,14.28
2018-10-06T09:06:53.244Z,20.88
2018-10-06T09:07:57.690Z,16.70
2018-10-06T09:09:02.193Z,15.70
2018-10-06T09:10:07.407Z,19.00
2018-10-06T09:11:11.730Z,14.53
2018-10-06T09:12:15.979Z,15.98
2018-10-06T09:13:22.954Z,16.23
2018-10-06T09:14:29.397Z,16.23
2018-10-06T09:15:49.829Z,16.12
2018-10-06T09:16:55.434Z,20.27
2018-10-06T09:17:59.745Z,12.03
2018-10-06T09:19:03.954Z,15.13
2018-10-06T09:20:08.184Z,16.20
2018-10-06T09:21:12.488Z,15.58
2018-10-06T09:22:16.784Z,15.78
2018-10-06T09:23:35.604Z,20.35
2018-10-06T09:24:39.909Z,13.30
2018-10-06T09:25:44.639Z,17.57
2018-10-06T09:26:48.925Z,17.35
2018-10-06T09:28:06.574Z,17.57
2018-10-06T09:29:17.767Z,13.90
2018-10-06T09:30:22.006Z,14.05
2018-10-06T09:31:39.683Z,15.65
2018-10-06T09:32:44.444Z,13.18
2018-10-06T09:33:48.726Z,14.38
2018-10-06T09:34:53.006Z,16.52
2018-10-06T09:35:57.391Z,14.18
2018-10-06T09:37:01.866Z,15.08
2018-10-06T09:38:06.359Z,15.53
2018-10-06T09:39:10.883Z,16.93
2018-10-06T09:40:15.219Z,10.95
2018-10-06T09:41:19.452Z,11.95
2018-10-06T09:42:23.748Z,13.35
2018-10-06T09:43:27.966Z,13.50
2018-10-06T09:44:32.198Z,14.83
2018-10-06T09:45:36.488Z,12.25
2018-10-06T09:46:40.676Z,14.93
2018-10-06T09:47:50.256Z,13.62
2018-10-06T09:48:54.464Z,9.10
2018-10-06T09:49:58.651Z,11.43
2018-10-06T09:51:02.780Z,16.17
2018-10-06T09:52:07.484Z,10.10
2018-10-06T09:53:11.663Z,13.58
2018-10-06T09:54:15.992Z,15.40
2018-10-06T09:55:20.246Z,8.55
2018-10-06T09:56:24.517Z,10.93
2018-10-06T09:57:28.798Z,16.07
2018-10-06T09:58:32.979Z,12.60
2018-10-06T09:59:38.298Z,10.93
2018-10-06T10:00:48.895Z,11.40
2018-10-06T10:01:56.519Z,11.97
2018-10-06T10:03:05.852Z,11.28
2018-10-06T10:04:12.994Z,13.10
2018-10-06T10:05:25.521Z,11.57
2018-10-06T10:06:29.755Z,11.20
2018-10-06T10:07:35.233Z,11.70
2018-10-06T10:08:39.458Z,13.90
2018-10-06T10:09:43.640Z,10.55
2018-10-06T10:10:48.907Z,11.33
2018-10-06T10:11:53.877Z,10.43
2018-10-06T10:12:58.061Z,13.88
2018-10-06T10:14:02.296Z,9.78
2018-10-06T10:15:18.448Z,13.95
2018-10-06T10:16:27.888Z,14.33
2018-10-06T10:17:43.205Z,10.68
2018-10-06T10:18:47.670Z,13.72
2018-10-06T10:19:52.773Z,12.40
2018-10-06T10:20:57.653Z,9.88
2018-10-06T10:22:03.330Z,9.90
2018-10-06T10:23:11.118Z,8.50
2018-10-06T10:24:15.234Z,11.20
2018-10-06T10:25:19.433Z,12.45
2018-10-06T10:26:23.512Z,9.53
2018-10-06T10:27:27.736Z,10.18
2018-10-06T10:28:32.291Z,10.70
2018-10-06T10:29:36.367Z,11.80
2018-10-06T10:30:41.153Z,10.03
2018-10-06T10:31:45.229Z,14.18
2018-10-06T10:32:50.397Z,9.95
2018-10-06T10:33:54.555Z,14.78
2018-10-06T10:35:10.364Z,8.68
2018-10-06T10:36:14.543Z,12.20
2018-10-06T10:37:27.562Z,10.20
2018-10-06T10:38:32.291Z,10.15
2018-10-06T10:39:38.161Z,10.18
2018-10-06T10:40:46.086Z,12.43
2018-10-06T10:41:52.335Z,10.80
2018-10-06T10:42:56.408Z,12.13
2018-10-06T10:44:05.856Z,11.18
2018-10-06T10:45:10.487Z,10.50
2018-10-06T10:46:15.836Z,11.83
2018-10-06T10:47:19.950Z,9.23
2018-10-06T10:48:26.234Z,7.05
2018-10-06T10:49:35.259Z,8.98
2018-10-06T10:50:42.807Z,10.00
2018-10-06T10:51:47.979Z,12.85
2018-10-06T10:52:52.532Z,17.62
2018-10-06T10:53:57.146Z,13.22
2018-10-06T10:55:01.724Z,17.02
2018-10-06T10:56:05.892Z,9.40
2018-10-06T10:57:10.195Z,10.50
2018-10-06T10:58:14.860Z,8.70
2018-10-06T10:59:19.086Z,10.88
2018-10-06T11:00:23.747Z,12.53
2018-10-06T11:01:28.089Z,11.83
2018-10-06T11:02:32.399Z,13.00
2018-10-06T11:03:36.623Z,17.92
2018-10-06T11:04:40.826Z,9.63
2018-10-06T11:05:45.076Z,9.35
2018-10-06T11:06:49.639Z,7.90
2018-10-06T11:07:53.868Z,9.70
2018-10-06T11:08:58.159Z,8.50
2018-10-06T11:10:07.573Z,11.10
2018-10-06T11:11:12.097Z,14.97
2018-10-06T11:12:16.387Z,12.40
2018-10-06T11:13:20.561Z,10.20
2018-10-06T11:14:33.631Z,12.20
2018-10-06T11:15:49.616Z,10.57
2018-10-06T11:16:53.868Z,11.83
2018-10-06T11:17:59.239Z,9.27
2018-10-06T11:19:03.473Z,10.27
2018-10-06T11:20:07.688Z,11.40
2018-10-06T11:21:12.344Z,6.90
2018-10-06T11:22:16.644Z,9.10
2018-10-06T11:23:20.969Z,8.67
2018-10-06T11:24:34.563Z,9.33
2018-10-06T11:25:41.806Z,9.30
2018-10-06T11:26:46.083Z,12.07
2018-10-06T11:27:52.525Z,12.23
2018-10-06T11:28:56.718Z,7.30
2018-10-06T11:30:01.089Z,8.43
2018-10-06T11:31:05.322Z,10.75
2018-10-06T11:32:09.797Z,9.90
2018-10-06T11:33:14.099Z,9.53
2018-10-06T11:34:23.194Z,8.40
2018-10-06T11:37:21.331Z,12.00
2018-10-06T11:38:37.897Z,11.68
2018-10-06T11:39:43.595Z,8.78
2018-10-06T11:42:17.284Z,7.75
2018-10-06T11:43:27.431Z,7.15
2018-10-06T11:44:31.684Z,10.32
2018-10-06T11:45:35.856Z,10.08
2018-10-06T11:46:40.040Z,10.90
2018-10-06T11:47:44.140Z,7.33
2018-10-06T11:48:48.258Z,8.83
2018-10-06T11:49:52.529Z,7.40
2018-10-06T11:50:56.849Z,9.98
2018-10-06T11:52:01.695Z,12.73
2018-10-06T11:53:05.931Z,9.60
2018-10-06T11:54:10.103Z,10.58
2018-10-06T11:55:14.326Z,11.80
2018-10-06T11:56:18.503Z,12.90
2018-10-06T11:57:22.720Z,7.85
2018-10-06T11:58:26.839Z,11.60
2018-10-06T11:59:30.978Z,10.88
2018-10-06T12:00:38.104Z,6.28
2018-10-06T12:01:42.204Z,8.33
2018-10-06T12:02:46.479Z,7.12
2018-10-06T12:03:50.621Z,7.62
2018-10-06T12:04:55.742Z,7.28
2018-10-06T12:06:00.400Z,8.13
2018-10-06T12:07:05.035Z,9.63
2018-10-06T12:08:09.179Z,13.73
2018-10-06T12:09:13.392Z,8.17
2018-10-06T12:10:17.617Z,10.20
2018-10-06T12:11:21.931Z,10.70
2018-10-06T12:12:29.260Z,6.90
2018-10-06T12:13:33.376Z,8.10
2018-10-06T12:14:39.404Z,9.53
2018-10-06T12:15:43.666Z,6.80
2018-10-06T12:16:51.977Z,9.60
2018-10-06T12:17:56.180Z,9.13
2018-10-06T12:19:00.480Z,9.30
2018-10-06T12:20:04.932Z,10.13
2018-10-06T12:21:09.240Z,9.13
2018-10-06T12:22:13.566Z,12.47
2018-10-06T12:23:17.711Z,9.97
2018-10-06T12:24:21.992Z,7.40
2018-10-06T12:25:26.421Z,7.50
2018-10-06T12:26:30.696Z,13.43
2018-10-06T12:27:35.032Z,8.87
2018-10-06T12:28:39.215Z,10.30
2018-10-06T12:29:43.532Z,11.13
2018-10-06T12:30:47.703Z,10.47
2018-10-06T12:31:51.797Z,8.93
2018-10-06T12:32:56.208Z,8.97
2018-10-06T12:34:00.303Z,10.17
2018-10-06T12:35:04.482Z,13.40
2018-10-06T12:36:08.820Z,18.70
2018-10-06T12:37:12.985Z,10.50
2018-10-06T12:38:17.332Z,8.20
2018-10-06T12:39:21.575Z,16.20
2018-10-06T12:40:25.943Z,9.57
2018-10-06T12:41:30.224Z,13.90
2018-10-06T12:42:34.421Z,14.00
2018-10-06T12:43:38.730Z,10.90
2018-10-06T12:44:48.475Z,8.10
2018-10-06T12:45:52.788Z,12.40
2018-10-06T12:46:57.143Z,16.57
2018-10-06T12:48:01.316Z,9.00
2018-10-06T12:49:05.702Z,8.47
2018-10-06T12:50:15.336Z,8.27
2018-10-06T12:51:19.576Z,8.17
2018-10-06T12:52:24.149Z,5.80
2018-10-06T12:53:28.358Z,6.43
2018-10-06T12:54:32.663Z,10.47
2018-10-06T12:55:36.796Z,6.33
2018-10-06T12:56:40.958Z,9.20
2018-10-06T12:57:45.561Z,6.60
2018-10-06T12:58:49.725Z,9.87
2018-10-06T12:59:54.535Z,8.13
2018-10-06T13:00:58.840Z,7.80
2018-10-06T13:02:03.125Z,6.53
2018-10-06T13:03:07.458Z,9.00
2018-10-06T13:04:11.599Z,8.87
2018-10-06T13:05:15.898Z,8.43
2018-10-06T13:06:20.039Z,13.13
2018-10-06T13:07:24.202Z,7.03
2018-10-06T13:08:28.363Z,7.40
2018-10-06T13:09:32.495Z,7.27
2018-10-06T13:10:36.657Z,9.93
2018-10-06T13:11:41.209Z,5.73
2018-10-06T13:12:45.375Z,9.83
2018-10-06T13:13:49.514Z,7.40
2018-10-06T13:14:53.720Z,11.93
2018-10-06T13:15:58.533Z,13.30
2018-10-06T13:17:02.678Z,6.17
2018-10-06T13:18:06.978Z,8.93
2018-10-06T13:19:16.450Z,6.60
2018-10-06T13:20:20.601Z,14.77
2018-10-06T13:21:24.837Z,14.27
2018-10-06T13:22:28.969Z,8.83
2018-10-06T13:23:33.175Z,9.10
2018-10-06T13:24:37.321Z,7.93
2018-10-06T13:25:41.464Z,7.00
2018-10-06T13:26:45.742Z,12.43
2018-10-06T13:27:49.959Z,13.03
2018-10-06T13:28:54.200Z,11.43
2018-10-06T13:29:58.385Z,10.90
2018-10-06T13:31:02.567Z,7.67
2018-10-06T13:32:07.091Z,11.60
2018-10-06T13:33:11.359Z,8.73
2018-10-06T13:34:15.543Z,10.87
2018-10-06T13:35:19.654Z,6.83
2018-10-06T13:36:23.828Z,9.00
2018-10-06T13:37:27.999Z,6.57
2018-10-06T13:38:32.589Z,7.03
2018-10-06T13:39:36.803Z,10.27
2018-10-06T13:40:40.958Z,9.13
2018-10-06T13:41:45.096Z,9.60
2018-10-06T13:42:49.758Z,8.20
2018-10-06T13:43:53.986Z,6.40
2018-10-06T13:44:58.155Z,8.37
2018-10-06T13:46:02.381Z,9.90
2018-10-06T13:47:06.561Z,9.03
2018-10-06T13:48:10.719Z,12.30
2018-10-06T13:49:14.859Z,9.83
2018-10-06T13:50:19.002Z,8.97
2018-10-06T13:51:23.180Z,8.73
2018-10-06T13:52:27.384Z,8.77
2018-10-06T13:53:31.710Z,6.20
2018-10-06T13:54:35.928Z,10.03
2018-10-06T13:55:40.181Z,9.57
2018-10-06T13:56:44.485Z,10.33
2018-10-06T13:57:48.662Z,5.80
2018-10-06T13:58:52.863Z,8.13
2018-10-06T13:59:57.050Z,8.53
2018-10-06T14:01:01.344Z,9.67
2018-10-06T14:02:05.582Z,9.20
2018-10-06T14:03:14.980Z,10.33
2018-10-06T14:04:19.225Z,9.25
2018-10-06T14:05:23.500Z,8.65
2018-10-06T14:06:27.739Z,10.55
2018-10-06T14:07:32.045Z,12.60
2018-10-06T14:08:36.146Z,8.73
2018-10-06T14:09:40.433Z,10.18
2018-10-06T14:10:44.627Z,7.28
2018-10-06T14:11:48.774Z,9.13
2018-10-06T14:12:53.553Z,8.23
2018-10-06T14:13:57.781Z,12.80
2018-10-06T14:15:01.985Z,7.83
2018-10-06T14:16:06.208Z,10.55
2018-10-06T14:17:10.494Z,9.40
2018-10-06T14:18:14.772Z,9.57
2018-10-06T14:19:18.983Z,8.58
2018-10-06T14:20:23.146Z,11.30
2018-10-06T14:21:27.297Z,11.35
2018-10-06T14:22:31.381Z,8.50
2018-10-06T14:23:35.615Z,15.78
2018-10-06T14:24:39.803Z,10.35
2018-10-06T14:25:44.104Z,11.10
2018-10-06T14:26:48.304Z,8.93
2018-10-06T14:27:52.435Z,8.33
2018-10-06T14:28:56.578Z,8.58
2018-10-06T14:30:00.835Z,6.30
2018-10-06T14:31:05.117Z,7.67
2018-10-06T14:32:09.325Z,11.43
2018-10-06T14:33:13.514Z,7.10
2018-10-06T14:34:17.702Z,12.18
2018-10-06T14:35:21.852Z,14.23
2018-10-06T14:36:26.045Z,9.60
2018-10-06T14:37:30.200Z,7.35
2018-10-06T14:38:34.418Z,11.12
2018-10-06T14:39:38.604Z,12.78
2018-10-06T14:40:42.962Z,10.40
2018-10-06T14:41:48.364Z,8.53
2018-10-06T14:42:52.500Z,9.50
2018-10-06T14:43:58.608Z,9.83
2018-10-06T14:45:06.577Z,9.00
2018-10-06T14:46:15.952Z,9.10
2018-10-06T14:47:20.308Z,8.73
2018-10-06T14:48:24.480Z,12.40
2018-10-06T14:49:28.864Z,8.60
2018-10-06T14:50:33.061Z,9.63
2018-10-06T14:51:37.240Z,13.73
2018-10-06T14:52:41.479Z,9.67
2018-10-06T14:53:45.610Z,11.23
2018-10-06T14:54:49.755Z,14.40
2018-10-06T14:55:53.863Z,14.85
2018-10-06T14:56:58.064Z,9.37
2018-10-06T14:58:02.129Z,10.03
2018-10-06T14:59:06.313Z,8.10